National Weather Service Raw Text Product

Displaying AFOS PIL: TAFFOD Received: 2017-12-07 20:51 UTC


584 
FTUS43 KDMX 072051 AAA
TAFFOD
TAF AMD
KFOD 072051Z 0721/0818 28012KT P6SM FEW250
     FM080700 24007KT P6SM BKN090
     FM081100 29005KT P6SM BKN025=